sensor_id;sensor_type;location;lat;lon;timestamp;P1;P2;P0
76784;PMS7003;66893;44.316;0.092;2024-02-15T00:01:26;17.00;15.75;11.00
76784;PMS7003;66893;44.316;0.092;2024-02-15T00:03:52;12.00;12.00;9.25
76784;PMS7003;66893;44.316;0.092;2024-02-15T00:06:17;14.25;13.00;9.75
76784;PMS7003;66893;44.316;0.092;2024-02-15T00:08:44;14.00;12.00;9.75
76784;PMS7003;66893;44.316;0.092;2024-02-15T00:11:10;12.00;11.75;9.00
76784;PMS7003;66893;44.316;0.092;2024-02-15T00:13:35;15.00;12.50;10.50
76784;PMS7003;66893;44.316;0.092;2024-02-15T00:16:01;9.00;8.00;4.50
76784;PMS7003;66893;44.316;0.092;2024-02-15T00:18:27;13.25;11.75;9.00
76784;PMS7003;66893;44.316;0.092;2024-02-15T00:20:52;9.75;9.50;8.50
76784;PMS7003;66893;44.316;0.092;2024-02-15T00:23:18;11.25;10.50;8.00
76784;PMS7003;66893;44.316;0.092;2024-02-15T00:25:43;16.25;9.75;8.25
76784;PMS7003;66893;44.316;0.092;2024-02-15T00:28:11;8.50;8.50;6.50
76784;PMS7003;66893;44.316;0.092;2024-02-15T00:30:38;9.75;9.50;6.00
76784;PMS7003;66893;44.316;0.092;2024-02-15T00:33:03;9.50;8.25;5.00
76784;PMS7003;66893;44.316;0.092;2024-02-15T00:35:29;9.00;5.75;4.00
76784;PMS7003;66893;44.316;0.092;2024-02-15T00:37:54;10.00;9.25;8.25
76784;PMS7003;66893;44.316;0.092;2024-02-15T00:40:20;16.00;11.00;8.75
76784;PMS7003;66893;44.316;0.092;2024-02-15T00:42:46;10.00;9.50;7.75
76784;PMS7003;66893;44.316;0.092;2024-02-15T00:45:12;7.00;7.00;5.00
76784;PMS7003;66893;44.316;0.092;2024-02-15T00:47:37;8.00;5.25;5.00
76784;PMS7003;66893;44.316;0.092;2024-02-15T00:50:03;9.25;8.75;7.50
76784;PMS7003;66893;44.316;0.092;2024-02-15T00:52:29;8.50;8.50;6.25
76784;PMS7003;66893;44.316;0.092;2024-02-15T00:54:55;3.25;3.25;3.00
76784;PMS7003;66893;44.316;0.092;2024-02-15T00:57:21;9.25;8.75;6.00
76784;PMS7003;66893;44.316;0.092;2024-02-15T00:59:47;8.75;8.25;5.50
76784;PMS7003;66893;44.316;0.092;2024-02-15T01:02:12;7.50;7.50;4.00
76784;PMS7003;66893;44.316;0.092;2024-02-15T01:04:38;8.00;6.25;5.00
76784;PMS7003;66893;44.316;0.092;2024-02-15T01:07:04;6.75;6.75;5.25
76784;PMS7003;66893;44.316;0.092;2024-02-15T01:09:29;8.75;8.50;5.25
76784;PMS7003;66893;44.316;0.092;2024-02-15T01:11:55;6.25;6.25;5.00
76784;PMS7003;66893;44.316;0.092;2024-02-15T01:14:20;8.00;6.50;5.50
76784;PMS7003;66893;44.316;0.092;2024-02-15T01:16:46;10.00;9.00;5.00
76784;PMS7003;66893;44.316;0.092;2024-02-15T01:19:11;6.00;5.75;4.00
76784;PMS7003;66893;44.316;0.092;2024-02-15T01:21:37;10.75;5.50;4.25
76784;PMS7003;66893;44.316;0.092;2024-02-15T01:24:03;4.75;2.00;2.00
76784;PMS7003;66893;44.316;0.092;2024-02-15T01:26:31;7.25;6.25;4.75
76784;PMS7003;66893;44.316;0.092;2024-02-15T01:28:57;7.50;6.50;5.00
76784;PMS7003;66893;44.316;0.092;2024-02-15T01:31:22;4.50;4.50;4.50
76784;PMS7003;66893;44.316;0.092;2024-02-15T01:33:48;6.50;6.25;3.75
76784;PMS7003;66893;44.316;0.092;2024-02-15T01:36:16;6.25;6.25;4.50
76784;PMS7003;66893;44.316;0.092;2024-02-15T01:38:42;9.00;6.25;5.50
76784;PMS7003;66893;44.316;0.092;2024-02-15T01:41:08;5.25;5.25;4.00
76784;PMS7003;66893;44.316;0.092;2024-02-15T01:43:35;5.75;5.75;4.50
76784;PMS7003;66893;44.316;0.092;2024-02-15T01:46:01;6.50;5.25;4.25
76784;PMS7003;66893;44.316;0.092;2024-02-15T01:48:32;8.25;6.00;5.00
76784;PMS7003;66893;44.316;0.092;2024-02-15T01:50:58;5.25;3.75;3.25
76784;PMS7003;66893;44.316;0.092;2024-02-15T01:53:23;4.00;4.00;3.75
76784;PMS7003;66893;44.316;0.092;2024-02-15T01:55:51;4.25;4.00;3.50
76784;PMS7003;66893;44.316;0.092;2024-02-15T01:58:18;5.75;5.25;4.25
76784;PMS7003;66893;44.316;0.092;2024-02-15T02:00:44;7.00;5.00;4.00
76784;PMS7003;66893;44.316;0.092;2024-02-15T02:03:10;5.00;5.00;4.00
76784;PMS7003;66893;44.316;0.092;2024-02-15T02:05:39;4.75;4.75;3.75
76784;PMS7003;66893;44.316;0.092;2024-02-15T02:08:06;4.50;4.50;4.00
76784;PMS7003;66893;44.316;0.092;2024-02-15T02:10:34;4.25;4.00;3.00
76784;PMS7003;66893;44.316;0.092;2024-02-15T02:13:01;4.00;4.00;3.25
76784;PMS7003;66893;44.316;0.092;2024-02-15T02:15:27;5.50;4.50;4.00
76784;PMS7003;66893;44.316;0.092;2024-02-15T02:17:54;4.00;4.00;3.00
76784;PMS7003;66893;44.316;0.092;2024-02-15T02:20:19;5.00;3.75;3.00
76784;PMS7003;66893;44.316;0.092;2024-02-15T02:22:46;4.75;3.75;3.00
76784;PMS7003;66893;44.316;0.092;2024-02-15T02:25:13;4.00;4.00;3.25
76784;PMS7003;66893;44.316;0.092;2024-02-15T02:27:38;5.25;4.75;3.00
76784;PMS7003;66893;44.316;0.092;2024-02-15T02:30:05;4.00;3.00;2.00
76784;PMS7003;66893;44.316;0.092;2024-02-15T02:32:40;3.75;2.50;2.25
76784;PMS7003;66893;44.316;0.092;2024-02-15T02:35:08;5.75;3.00;2.50
76784;PMS7003;66893;44.316;0.092;2024-02-15T02:37:37;3.25;3.25;2.75
76784;PMS7003;66893;44.316;0.092;2024-02-15T02:40:05;3.25;3.00;3.00
76784;PMS7003;66893;44.316;0.092;2024-02-15T02:42:33;3.00;2.75;2.00
76784;PMS7003;66893;44.316;0.092;2024-02-15T02:45:11;3.00;3.00;2.00
76784;PMS7003;66893;44.316;0.092;2024-02-15T02:47:36;5.75;3.75;3.00
76784;PMS7003;66893;44.316;0.092;2024-02-15T02:50:01;4.00;4.00;3.00
76784;PMS7003;66893;44.316;0.092;2024-02-15T02:52:28;3.25;2.25;2.00
76784;PMS7003;66893;44.316;0.092;2024-02-15T02:54:53;4.00;3.00;2.00
76784;PMS7003;66893;44.316;0.092;2024-02-15T02:57:19;3.00;3.00;2.75
76784;PMS7003;66893;44.316;0.092;2024-02-15T02:59:44;3.00;3.00;3.00
76784;PMS7003;66893;44.316;0.092;2024-02-15T03:02:10;3.00;3.00;2.00
76784;PMS7003;66893;44.316;0.092;2024-02-15T03:04:35;1.75;1.75;1.50
76784;PMS7003;66893;44.316;0.092;2024-02-15T03:07:00;4.00;1.75;1.25
76784;PMS7003;66893;44.316;0.092;2024-02-15T03:09:26;2.75;2.75;2.00
76784;PMS7003;66893;44.316;0.092;2024-02-15T03:11:54;2.00;1.50;1.25
76784;PMS7003;66893;44.316;0.092;2024-02-15T03:14:19;2.00;2.00;2.00
76784;PMS7003;66893;44.316;0.092;2024-02-15T03:16:45;2.50;2.50;2.00
76784;PMS7003;66893;44.316;0.092;2024-02-15T03:19:11;3.00;3.00;2.50
76784;PMS7003;66893;44.316;0.092;2024-02-15T03:21:37;3.00;3.00;2.00
76784;PMS7003;66893;44.316;0.092;2024-02-15T03:24:02;2.50;2.50;2.00
76784;PMS7003;66893;44.316;0.092;2024-02-15T03:26:31;2.50;2.50;2.00
76784;PMS7003;66893;44.316;0.092;2024-02-15T03:29:05;3.00;3.00;2.25
76784;PMS7003;66893;44.316;0.092;2024-02-15T03:31:30;3.00;1.75;1.75
76784;PMS7003;66893;44.316;0.092;2024-02-15T03:33:59;2.00;2.00;2.00
76784;PMS7003;66893;44.316;0.092;2024-02-15T03:36:25;2.50;2.50;2.00
76784;PMS7003;66893;44.316;0.092;2024-02-15T03:38:50;2.50;2.50;2.00
76784;PMS7003;66893;44.316;0.092;2024-02-15T03:41:18;3.00;3.00;2.00
76784;PMS7003;66893;44.316;0.092;2024-02-15T03:43:43;3.50;3.00;2.00
76784;PMS7003;66893;44.316;0.092;2024-02-15T03:46:08;3.00;3.00;2.50
76784;PMS7003;66893;44.316;0.092;2024-02-15T03:48:37;1.00;1.00;1.00
76784;PMS7003;66893;44.316;0.092;2024-02-15T03:51:03;2.50;2.50;1.50
76784;PMS7003;66893;44.316;0.092;2024-02-15T03:53:28;3.00;3.00;2.25
76784;PMS7003;66893;44.316;0.092;2024-02-15T03:55:56;1.25;1.00;1.00
76784;PMS7003;66893;44.316;0.092;2024-02-15T03:58:21;1.75;1.75;1.25
76784;PMS7003;66893;44.316;0.092;2024-02-15T04:00:47;1.75;1.75;1.50
76784;PMS7003;66893;44.316;0.092;2024-02-15T04:03:12;3.00;2.00;2.00
76784;PMS7003;66893;44.316;0.092;2024-02-15T04:05:38;1.25;1.25;1.00
76784;PMS7003;66893;44.316;0.092;2024-02-15T04:08:04;1.50;1.50;1.25
76784;PMS7003;66893;44.316;0.092;2024-02-15T04:10:30;2.00;2.00;2.00
76784;PMS7003;66893;44.316;0.092;2024-02-15T04:12:56;3.00;3.00;2.00
76784;PMS7003;66893;44.316;0.092;2024-02-15T04:15:23;2.75;2.00;1.75
76784;PMS7003;66893;44.316;0.092;2024-02-15T04:17:48;1.75;1.75;1.50
76784;PMS7003;66893;44.316;0.092;2024-02-15T04:20:20;2.00;2.00;2.00
76784;PMS7003;66893;44.316;0.092;2024-02-15T04:22:46;2.50;2.00;2.00
76784;PMS7003;66893;44.316;0.092;2024-02-15T04:25:12;2.50;2.50;2.00
76784;PMS7003;66893;44.316;0.092;2024-02-15T04:27:41;3.00;2.00;2.00
76784;PMS7003;66893;44.316;0.092;2024-02-15T04:30:08;1.50;1.50;1.00
76784;PMS7003;66893;44.316;0.092;2024-02-15T04:32:34;2.00;2.00;2.00
76784;PMS7003;66893;44.316;0.092;2024-02-15T04:35:01;2.00;2.00;1.25
76784;PMS7003;66893;44.316;0.092;2024-02-15T04:37:26;4.00;2.75;2.00
76784;PMS7003;66893;44.316;0.092;2024-02-15T04:39:54;3.00;3.00;2.50
76784;PMS7003;66893;44.316;0.092;2024-02-15T04:42:19;3.00;3.00;2.75
76784;PMS7003;66893;44.316;0.092;2024-02-15T04:44:45;2.50;1.00;1.00
76784;PMS7003;66893;44.316;0.092;2024-02-15T04:47:10;3.50;2.00;1.25
76784;PMS7003;66893;44.316;0.092;2024-02-15T04:49:36;3.75;2.50;1.75
76784;PMS7003;66893;44.316;0.092;2024-02-15T04:52:04;2.75;2.75;2.00
76784;PMS7003;66893;44.316;0.092;2024-02-15T04:54:32;2.00;2.00;2.00
76784;PMS7003;66893;44.316;0.092;2024-02-15T04:56:58;2.25;2.25;2.00
76784;PMS7003;66893;44.316;0.092;2024-02-15T04:59:23;2.00;2.00;1.75
76784;PMS7003;66893;44.316;0.092;2024-02-15T05:01:52;3.00;3.00;3.00
76784;PMS7003;66893;44.316;0.092;2024-02-15T05:04:17;3.00;2.25;2.00
76784;PMS7003;66893;44.316;0.092;2024-02-15T05:06:43;3.25;2.75;2.00
76784;PMS7003;66893;44.316;0.092;2024-02-15T05:09:10;2.00;1.75;1.50
76784;PMS7003;66893;44.316;0.092;2024-02-15T05:11:39;4.50;3.00;2.00
76784;PMS7003;66893;44.316;0.092;2024-02-15T05:14:13;2.50;2.50;2.25
76784;PMS7003;66893;44.316;0.092;2024-02-15T05:16:44;2.00;2.00;2.00
76784;PMS7003;66893;44.316;0.092;2024-02-15T05:19:15;3.50;2.00;2.00
76784;PMS7003;66893;44.316;0.092;2024-02-15T05:21:41;1.25;1.25;1.00
76784;PMS7003;66893;44.316;0.092;2024-02-15T05:24:10;4.75;3.25;2.25
76784;PMS7003;66893;44.316;0.092;2024-02-15T05:26:40;3.00;3.00;3.00
76784;PMS7003;66893;44.316;0.092;2024-02-15T05:29:07;3.75;2.25;2.00
76784;PMS7003;66893;44.316;0.092;2024-02-15T05:31:33;3.00;3.00;2.00
76784;PMS7003;66893;44.316;0.092;2024-02-15T05:33:59;4.00;2.00;2.00
76784;PMS7003;66893;44.316;0.092;2024-02-15T05:36:25;4.00;3.75;2.75
76784;PMS7003;66893;44.316;0.092;2024-02-15T05:38:53;2.00;2.00;2.00
76784;PMS7003;66893;44.316;0.092;2024-02-15T05:41:20;2.00;2.00;2.00
76784;PMS7003;66893;44.316;0.092;2024-02-15T05:43:46;4.75;4.75;3.25
76784;PMS7003;66893;44.316;0.092;2024-02-15T05:46:18;4.00;2.00;2.00
76784;PMS7003;66893;44.316;0.092;2024-02-15T05:48:46;2.75;2.75;2.00
76784;PMS7003;66893;44.316;0.092;2024-02-15T05:51:13;3.00;3.00;2.25
76784;PMS7003;66893;44.316;0.092;2024-02-15T05:53:38;2.50;2.50;2.00
76784;PMS7003;66893;44.316;0.092;2024-02-15T05:56:07;3.25;3.25;2.75
76784;PMS7003;66893;44.316;0.092;2024-02-15T05:58:34;2.75;2.25;1.75
76784;PMS7003;66893;44.316;0.092;2024-02-15T06:01:01;3.00;3.00;2.00
76784;PMS7003;66893;44.316;0.092;2024-02-15T06:03:28;3.00;3.00;3.00
76784;PMS7003;66893;44.316;0.092;2024-02-15T06:05:53;3.00;2.75;1.50
76784;PMS7003;66893;44.316;0.092;2024-02-15T06:08:23;3.75;3.75;2.75
76784;PMS7003;66893;44.316;0.092;2024-02-15T06:10:52;3.00;3.00;2.25
76784;PMS7003;66893;44.316;0.092;2024-02-15T06:13:27;2.00;1.75;1.50
76784;PMS7003;66893;44.316;0.092;2024-02-15T06:15:53;4.00;4.00;3.00
76784;PMS7003;66893;44.316;0.092;2024-02-15T06:18:23;2.25;2.25;2.00
76784;PMS7003;66893;44.316;0.092;2024-02-15T06:20:52;3.50;3.25;2.25
76784;PMS7003;66893;44.316;0.092;2024-02-15T06:23:18;2.25;2.25;1.75
76784;PMS7003;66893;44.316;0.092;2024-02-15T06:25:43;5.50;3.75;2.75
76784;PMS7003;66893;44.316;0.092;2024-02-15T06:28:12;3.50;3.50;3.00
76784;PMS7003;66893;44.316;0.092;2024-02-15T06:30:44;3.00;3.00;2.00
76784;PMS7003;66893;44.316;0.092;2024-02-15T06:33:29;4.75;3.50;2.50
76784;PMS7003;66893;44.316;0.092;2024-02-15T06:36:13;0.00;0.00;0.00
76784;PMS7003;66893;44.316;0.092;2024-02-15T06:38:57;4.00;4.00;3.00
76784;PMS7003;66893;44.316;0.092;2024-02-15T06:41:41;2.75;2.75;2.00
76784;PMS7003;66893;44.316;0.092;2024-02-15T06:44:06;3.00;3.00;2.75
76784;PMS7003;66893;44.316;0.092;2024-02-15T06:46:32;7.50;3.75;3.00
76784;PMS7003;66893;44.316;0.092;2024-02-15T06:48:58;2.50;2.50;2.50
76784;PMS7003;66893;44.316;0.092;2024-02-15T06:51:26;7.00;4.00;4.00
76784;PMS7003;66893;44.316;0.092;2024-02-15T06:53:51;5.00;5.00;4.00
76784;PMS7003;66893;44.316;0.092;2024-02-15T06:56:20;4.00;4.00;3.25
76784;PMS7003;66893;44.316;0.092;2024-02-15T06:58:46;4.75;3.75;2.75
76784;PMS7003;66893;44.316;0.092;2024-02-15T07:01:13;4.50;4.00;3.75
76784;PMS7003;66893;44.316;0.092;2024-02-15T07:03:41;5.50;4.00;3.00
76784;PMS7003;66893;44.316;0.092;2024-02-15T07:06:09;4.00;4.00;3.00
76784;PMS7003;66893;44.316;0.092;2024-02-15T07:08:35;8.00;4.00;3.00
76784;PMS7003;66893;44.316;0.092;2024-02-15T07:11:00;5.00;5.00;4.25
76784;PMS7003;66893;44.316;0.092;2024-02-15T07:13:27;5.50;5.00;4.25
76784;PMS7003;66893;44.316;0.092;2024-02-15T07:15:55;4.00;3.75;3.00
76784;PMS7003;66893;44.316;0.092;2024-02-15T07:18:20;5.00;4.00;2.75
76784;PMS7003;66893;44.316;0.092;2024-02-15T07:20:47;6.75;4.00;3.50
76784;PMS7003;66893;44.316;0.092;2024-02-15T07:23:13;7.00;5.00;4.00
76784;PMS7003;66893;44.316;0.092;2024-02-15T07:25:39;5.25;5.25;4.00
76784;PMS7003;66893;44.316;0.092;2024-02-15T07:28:05;5.75;5.50;3.75
76784;PMS7003;66893;44.316;0.092;2024-02-15T07:30:30;4.75;4.75;3.75
76784;PMS7003;66893;44.316;0.092;2024-02-15T07:32:56;4.75;4.75;4.00
76784;PMS7003;66893;44.316;0.092;2024-02-15T07:35:22;7.50;4.25;3.75
76784;PMS7003;66893;44.316;0.092;2024-02-15T07:37:53;4.00;4.00;3.00
76784;PMS7003;66893;44.316;0.092;2024-02-15T07:40:20;3.75;3.75;2.75
76784;PMS7003;66893;44.316;0.092;2024-02-15T07:42:47;4.00;4.00;3.00
76784;PMS7003;66893;44.316;0.092;2024-02-15T07:45:14;4.00;4.00;2.75
76784;PMS7003;66893;44.316;0.092;2024-02-15T07:47:39;4.75;4.50;3.00
76784;PMS7003;66893;44.316;0.092;2024-02-15T07:50:05;4.50;4.50;3.50
76784;PMS7003;66893;44.316;0.092;2024-02-15T07:52:30;4.00;4.00;3.00
76784;PMS7003;66893;44.316;0.092;2024-02-15T07:54:56;3.75;3.75;3.00
76784;PMS7003;66893;44.316;0.092;2024-02-15T07:57:21;4.00;4.00;3.00
76784;PMS7003;66893;44.316;0.092;2024-02-15T07:59:48;4.00;4.00;2.75
76784;PMS7003;66893;44.316;0.092;2024-02-15T08:02:14;6.50;5.75;4.00
76784;PMS7003;66893;44.316;0.092;2024-02-15T08:04:43;7.00;5.25;4.00
76784;PMS7003;66893;44.316;0.092;2024-02-15T08:07:09;7.25;5.25;3.50
76784;PMS7003;66893;44.316;0.092;2024-02-15T08:09:36;8.75;6.75;5.00
76784;PMS7003;66893;44.316;0.092;2024-02-15T08:12:02;4.75;4.75;3.75
76784;PMS7003;66893;44.316;0.092;2024-02-15T08:14:28;8.00;4.75;3.00
76784;PMS7003;66893;44.316;0.092;2024-02-15T08:16:54;5.75;4.75;3.75
76784;PMS7003;66893;44.316;0.092;2024-02-15T08:19:20;5.50;5.50;4.00
76784;PMS7003;66893;44.316;0.092;2024-02-15T08:21:47;4.25;4.00;3.00
76784;PMS7003;66893;44.316;0.092;2024-02-15T08:24:15;7.75;5.75;4.00
76784;PMS7003;66893;44.316;0.092;2024-02-15T08:26:41;5.50;4.75;3.75
76784;PMS7003;66893;44.316;0.092;2024-02-15T08:29:07;3.75;3.50;3.00
76784;PMS7003;66893;44.316;0.092;2024-02-15T08:31:34;3.25;3.25;2.75
76784;PMS7003;66893;44.316;0.092;2024-02-15T08:34:01;6.50;4.75;3.00
76784;PMS7003;66893;44.316;0.092;2024-02-15T08:36:27;4.00;4.00;2.75
76784;PMS7003;66893;44.316;0.092;2024-02-15T08:38:52;6.00;4.75;3.50
76784;PMS7003;66893;44.316;0.092;2024-02-15T08:41:19;4.00;3.00;3.00
76784;PMS7003;66893;44.316;0.092;2024-02-15T08:43:46;3.50;2.75;2.50
76784;PMS7003;66893;44.316;0.092;2024-02-15T08:46:13;3.00;3.00;2.75
76784;PMS7003;66893;44.316;0.092;2024-02-15T08:48:39;3.00;3.00;2.25
76784;PMS7003;66893;44.316;0.092;2024-02-15T08:51:05;2.50;2.50;2.00
76784;PMS7003;66893;44.316;0.092;2024-02-15T08:53:33;4.25;4.00;3.00
76784;PMS7003;66893;44.316;0.092;2024-02-15T08:56:01;2.75;2.75;2.75
76784;PMS7003;66893;44.316;0.092;2024-02-15T08:58:27;3.00;3.00;2.75
76784;PMS7003;66893;44.316;0.092;2024-02-15T09:00:52;2.25;2.00;2.00
76784;PMS7003;66893;44.316;0.092;2024-02-15T09:03:19;2.75;2.75;2.25
76784;PMS7003;66893;44.316;0.092;2024-02-15T09:05:44;2.75;2.50;1.50
76784;PMS7003;66893;44.316;0.092;2024-02-15T09:08:10;1.75;1.00;1.00
76784;PMS7003;66893;44.316;0.092;2024-02-15T09:10:35;5.50;3.75;3.50
76784;PMS7003;66893;44.316;0.092;2024-02-15T09:13:04;4.00;4.00;3.00
76784;PMS7003;66893;44.316;0.092;2024-02-15T09:15:31;4.00;3.25;2.50
76784;PMS7003;66893;44.316;0.092;2024-02-15T09:17:56;3.75;3.25;2.75
76784;PMS7003;66893;44.316;0.092;2024-02-15T09:20:23;2.75;2.75;2.75
76784;PMS7003;66893;44.316;0.092;2024-02-15T09:22:53;4.50;4.00;2.75
76784;PMS7003;66893;44.316;0.092;2024-02-15T09:25:20;4.00;2.75;1.00
76784;PMS7003;66893;44.316;0.092;2024-02-15T09:27:48;3.50;2.50;1.50
76784;PMS7003;66893;44.316;0.092;2024-02-15T09:30:14;2.75;2.75;2.00
76784;PMS7003;66893;44.316;0.092;2024-02-15T09:32:40;4.25;2.25;2.00
76784;PMS7003;66893;44.316;0.092;2024-02-15T09:35:07;2.00;2.00;0.75
76784;PMS7003;66893;44.316;0.092;2024-02-15T09:37:34;3.00;3.00;3.00
76784;PMS7003;66893;44.316;0.092;2024-02-15T09:40:00;3.00;3.00;3.00
76784;PMS7003;66893;44.316;0.092;2024-02-15T09:42:31;3.00;3.00;3.00
76784;PMS7003;66893;44.316;0.092;2024-02-15T09:44:59;3.00;3.00;2.25
76784;PMS7003;66893;44.316;0.092;2024-02-15T09:47:27;2.50;2.50;2.00
76784;PMS7003;66893;44.316;0.092;2024-02-15T09:50:01;3.75;3.75;3.00
76784;PMS7003;66893;44.316;0.092;2024-02-15T09:52:28;3.00;3.00;2.25
76784;PMS7003;66893;44.316;0.092;2024-02-15T09:54:56;3.00;3.00;2.50
76784;PMS7003;66893;44.316;0.092;2024-02-15T09:57:23;3.00;3.00;2.75
76784;PMS7003;66893;44.316;0.092;2024-02-15T09:59:49;4.75;4.75;3.00
76784;PMS7003;66893;44.316;0.092;2024-02-15T10:02:15;4.00;3.75;2.00
76784;PMS7003;66893;44.316;0.092;2024-02-15T10:04:40;4.50;4.50;3.75
76784;PMS7003;66893;44.316;0.092;2024-02-15T10:07:07;4.00;3.25;2.75
76784;PMS7003;66893;44.316;0.092;2024-02-15T10:09:34;4.00;3.00;2.00
76784;PMS7003;66893;44.316;0.092;2024-02-15T10:12:02;1.00;1.00;0.50
76784;PMS7003;66893;44.316;0.092;2024-02-15T10:14:31;4.75;2.00;2.00
76784;PMS7003;66893;44.316;0.092;2024-02-15T10:17:04;5.00;3.00;2.50
76784;PMS7003;66893;44.316;0.092;2024-02-15T10:19:34;3.75;2.50;2.00
76784;PMS7003;66893;44.316;0.092;2024-02-15T10:22:05;2.50;2.50;2.00
76784;PMS7003;66893;44.316;0.092;2024-02-15T10:24:32;1.50;1.50;1.00
76784;PMS7003;66893;44.316;0.092;2024-02-15T10:27:01;3.00;2.50;2.00
76784;PMS7003;66893;44.316;0.092;2024-02-15T10:29:32;1.75;1.75;1.75
76784;PMS7003;66893;44.316;0.092;2024-02-15T10:32:02;2.00;2.00;2.00
76784;PMS7003;66893;44.316;0.092;2024-02-15T10:34:29;3.00;3.00;2.75
76784;PMS7003;66893;44.316;0.092;2024-02-15T10:37:11;5.00;3.75;3.00
76784;PMS7003;66893;44.316;0.092;2024-02-15T10:39:38;2.50;2.50;2.00
76784;PMS7003;66893;44.316;0.092;2024-02-15T10:42:06;3.00;3.00;2.00
76784;PMS7003;66893;44.316;0.092;2024-02-15T10:44:32;2.25;2.25;1.75
76784;PMS7003;66893;44.316;0.092;2024-02-15T10:46:59;4.25;2.50;2.00
76784;PMS7003;66893;44.316;0.092;2024-02-15T10:49:25;3.00;3.00;2.25
76784;PMS7003;66893;44.316;0.092;2024-02-15T10:51:56;1.50;1.00;1.00
76784;PMS7003;66893;44.316;0.092;2024-02-15T10:57:03;3.75;3.75;3.00
76784;PMS7003;66893;44.316;0.092;2024-02-15T10:59:31;4.00;3.25;3.00
76784;PMS7003;66893;44.316;0.092;2024-02-15T11:02:01;4.00;3.00;2.00
76784;PMS7003;66893;44.316;0.092;2024-02-15T11:04:38;7.00;3.25;3.00
76784;PMS7003;66893;44.316;0.092;2024-02-15T11:07:06;4.00;4.00;3.00
76784;PMS7003;66893;44.316;0.092;2024-02-15T11:09:32;1.75;1.75;1.75
76784;PMS7003;66893;44.316;0.092;2024-02-15T11:11:58;3.75;3.75;2.75
76784;PMS7003;66893;44.316;0.092;2024-02-15T11:14:26;2.75;2.50;2.00
76784;PMS7003;66893;44.316;0.092;2024-02-15T11:17:00;3.75;3.00;2.50
76784;PMS7003;66893;44.316;0.092;2024-02-15T11:22:04;5.25;3.50;2.50
76784;PMS7003;66893;44.316;0.092;2024-02-15T11:24:50;3.00;3.00;2.00
76784;PMS7003;66893;44.316;0.092;2024-02-15T11:27:29;3.25;3.25;3.00
76784;PMS7003;66893;44.316;0.092;2024-02-15T11:30:00;5.75;4.00;2.75
76784;PMS7003;66893;44.316;0.092;2024-02-15T11:32:37;5.25;4.00;3.00
76784;PMS7003;66893;44.316;0.092;2024-02-15T11:35:15;5.25;5.00;4.50
76784;PMS7003;66893;44.316;0.092;2024-02-15T11:43:08;5.50;3.75;3.00
76784;PMS7003;66893;44.316;0.092;2024-02-15T11:45:36;5.00;5.00;4.00
76784;PMS7003;66893;44.316;0.092;2024-02-15T11:48:09;9.00;5.00;4.00
76784;PMS7003;66893;44.316;0.092;2024-02-15T11:50:37;8.00;5.50;4.00
76784;PMS7003;66893;44.316;0.092;2024-02-15T11:53:05;7.50;3.50;2.00
76784;PMS7003;66893;44.316;0.092;2024-02-15T11:55:34;5.75;4.00;3.00
76784;PMS7003;66893;44.316;0.092;2024-02-15T11:58:00;2.50;2.00;2.00
76784;PMS7003;66893;44.316;0.092;2024-02-15T12:00:41;3.25;3.25;2.75
76784;PMS7003;66893;44.316;0.092;2024-02-15T12:03:26;5.00;4.00;3.00
76784;PMS7003;66893;44.316;0.092;2024-02-15T12:06:11;6.25;3.75;3.25
76784;PMS7003;66893;44.316;0.092;2024-02-15T12:08:55;2.50;2.50;2.25
76784;PMS7003;66893;44.316;0.092;2024-02-15T12:11:39;5.25;4.75;4.00
76784;PMS7003;66893;44.316;0.092;2024-02-15T12:14:24;4.75;3.25;2.50
76784;PMS7003;66893;44.316;0.092;2024-02-15T12:17:11;3.50;3.50;2.75
76784;PMS7003;66893;44.316;0.092;2024-02-15T12:19:59;4.75;3.25;3.00
76784;PMS7003;66893;44.316;0.092;2024-02-15T12:22:33;4.75;2.75;2.00
76784;PMS7003;66893;44.316;0.092;2024-02-15T12:25:05;3.75;3.75;3.00
76784;PMS7003;66893;44.316;0.092;2024-02-15T12:27:41;3.00;3.00;2.00
76784;PMS7003;66893;44.316;0.092;2024-02-15T12:30:17;2.75;2.75;2.00
76784;PMS7003;66893;44.316;0.092;2024-02-15T12:32:47;2.00;2.00;2.00
76784;PMS7003;66893;44.316;0.092;2024-02-15T12:35:16;2.50;2.50;2.00
76784;PMS7003;66893;44.316;0.092;2024-02-15T12:40:29;3.75;3.75;3.00
76784;PMS7003;66893;44.316;0.092;2024-02-15T12:42:56;3.00;3.00;3.00
76784;PMS7003;66893;44.316;0.092;2024-02-15T12:45:22;3.25;3.25;2.00
76784;PMS7003;66893;44.316;0.092;2024-02-15T12:47:54;3.50;2.25;2.00
76784;PMS7003;66893;44.316;0.092;2024-02-15T12:50:22;4.00;3.00;2.00
76784;PMS7003;66893;44.316;0.092;2024-02-15T12:52:49;3.50;3.00;2.00
76784;PMS7003;66893;44.316;0.092;2024-02-15T12:55:19;2.75;2.75;2.25
76784;PMS7003;66893;44.316;0.092;2024-02-15T12:57:52;4.00;4.00;4.00
76784;PMS7003;66893;44.316;0.092;2024-02-15T13:00:23;3.00;2.00;2.00
76784;PMS7003;66893;44.316;0.092;2024-02-15T13:02:53;6.25;3.50;2.50
76784;PMS7003;66893;44.316;0.092;2024-02-15T13:05:21;4.25;4.00;3.00
76784;PMS7003;66893;44.316;0.092;2024-02-15T13:07:51;5.75;5.75;5.00
76784;PMS7003;66893;44.316;0.092;2024-02-15T13:10:17;6.75;6.75;5.00
76784;PMS7003;66893;44.316;0.092;2024-02-15T13:12:44;5.50;5.50;4.75
76784;PMS7003;66893;44.316;0.092;2024-02-15T13:15:13;4.00;4.00;3.25
76784;PMS7003;66893;44.316;0.092;2024-02-15T13:17:43;4.50;3.75;3.00
76784;PMS7003;66893;44.316;0.092;2024-02-15T13:20:32;5.00;3.00;3.00
76784;PMS7003;66893;44.316;0.092;2024-02-15T13:23:00;5.25;4.00;3.00
76784;PMS7003;66893;44.316;0.092;2024-02-15T13:25:30;3.75;3.75;3.50
76784;PMS7003;66893;44.316;0.092;2024-02-15T13:27:57;4.50;3.50;3.25
76784;PMS7003;66893;44.316;0.092;2024-02-15T13:30:22;5.00;3.00;2.75
76784;PMS7003;66893;44.316;0.092;2024-02-15T13:32:52;5.50;4.00;3.00
76784;PMS7003;66893;44.316;0.092;2024-02-15T13:35:18;4.50;4.00;3.00
76784;PMS7003;66893;44.316;0.092;2024-02-15T13:37:48;5.00;5.00;4.00
76784;PMS7003;66893;44.316;0.092;2024-02-15T13:40:18;5.25;4.00;3.00
76784;PMS7003;66893;44.316;0.092;2024-02-15T13:42:47;6.00;4.00;3.75
76784;PMS7003;66893;44.316;0.092;2024-02-15T13:48:02;5.00;5.00;4.50
76784;PMS7003;66893;44.316;0.092;2024-02-15T13:50:29;4.50;4.50;3.75
76784;PMS7003;66893;44.316;0.092;2024-02-15T13:52:56;3.50;3.50;2.75
76784;PMS7003;66893;44.316;0.092;2024-02-15T13:55:23;3.25;3.25;3.00
76784;PMS7003;66893;44.316;0.092;2024-02-15T13:57:50;4.00;4.00;3.00
76784;PMS7003;66893;44.316;0.092;2024-02-15T14:00:17;3.50;3.50;3.00
76784;PMS7003;66893;44.316;0.092;2024-02-15T14:02:49;4.50;3.50;2.25
76784;PMS7003;66893;44.316;0.092;2024-02-15T14:05:16;3.00;3.00;2.00
76784;PMS7003;66893;44.316;0.092;2024-02-15T14:07:48;3.25;3.25;3.00
76784;PMS7003;66893;44.316;0.092;2024-02-15T14:10:14;4.75;4.00;3.00
76784;PMS7003;66893;44.316;0.092;2024-02-15T14:12:43;3.50;3.50;2.50
76784;PMS7003;66893;44.316;0.092;2024-02-15T14:15:10;5.75;4.00;3.00
76784;PMS7003;66893;44.316;0.092;2024-02-15T14:17:36;3.75;3.75;2.00
76784;PMS7003;66893;44.316;0.092;2024-02-15T14:20:02;4.25;4.25;3.25
76784;PMS7003;66893;44.316;0.092;2024-02-15T14:22:33;4.75;3.00;3.00
76784;PMS7003;66893;44.316;0.092;2024-02-15T14:24:59;3.75;3.75;3.00
76784;PMS7003;66893;44.316;0.092;2024-02-15T14:27:24;5.00;4.00;3.00
76784;PMS7003;66893;44.316;0.092;2024-02-15T14:29:50;4.50;4.00;3.00
76784;PMS7003;66893;44.316;0.092;2024-02-15T14:32:34;2.50;2.00;2.00
76784;PMS7003;66893;44.316;0.092;2024-02-15T14:35:18;3.25;3.00;3.00
76784;PMS7003;66893;44.316;0.092;2024-02-15T14:37:45;4.50;2.50;2.00
76784;PMS7003;66893;44.316;0.092;2024-02-15T14:40:11;3.00;2.25;1.75
76784;PMS7003;66893;44.316;0.092;2024-02-15T14:42:40;3.00;3.00;2.00